sensor_id;sensor_type;location;lat;lon;timestamp;P1;durP1;ratioP1;P2;durP2;ratioP2
51529;SDS011;37613;51.788;21.582;2022-07-23T00:02:05;23.50;;;18.60;;
51529;SDS011;37613;51.788;21.582;2022-07-23T00:06:08;24.60;;;19.00;;
51529;SDS011;37613;51.788;21.582;2022-07-23T00:10:10;29.90;;;19.40;;
51529;SDS011;37613;51.788;21.582;2022-07-23T00:14:12;27.30;;;19.60;;
51529;SDS011;37613;51.788;21.582;2022-07-23T00:18:14;33.70;;;20.10;;
51529;SDS011;37613;51.788;21.582;2022-07-23T00:22:15;23.70;;;19.10;;
51529;SDS011;37613;51.788;21.582;2022-07-23T00:26:17;22.90;;;19.00;;
51529;SDS011;37613;51.788;21.582;2022-07-23T00:30:19;22.10;;;17.80;;
51529;SDS011;37613;51.788;21.582;2022-07-23T00:34:21;27.30;;;19.40;;
51529;SDS011;37613;51.788;21.582;2022-07-23T00:38:23;21.00;;;17.90;;
51529;SDS011;37613;51.788;21.582;2022-07-23T00:42:25;24.40;;;18.30;;
51529;SDS011;37613;51.788;21.582;2022-07-23T00:46:27;24.70;;;18.20;;
51529;SDS011;37613;51.788;21.582;2022-07-23T00:50:29;22.70;;;18.30;;
51529;SDS011;37613;51.788;21.582;2022-07-23T00:54:31;19.10;;;16.90;;
51529;SDS011;37613;51.788;21.582;2022-07-23T00:58:34;20.50;;;18.10;;
51529;SDS011;37613;51.788;21.582;2022-07-23T01:02:37;25.80;;;17.90;;
51529;SDS011;37613;51.788;21.582;2022-07-23T01:06:46;26.00;;;18.40;;
51529;SDS011;37613;51.788;21.582;2022-07-23T01:10:48;20.40;;;18.20;;
51529;SDS011;37613;51.788;21.582;2022-07-23T01:14:55;21.00;;;18.60;;
51529;SDS011;37613;51.788;21.582;2022-07-23T01:18:58;20.80;;;17.90;;
51529;SDS011;37613;51.788;21.582;2022-07-23T01:23:00;22.20;;;18.40;;
51529;SDS011;37613;51.788;21.582;2022-07-23T01:27:02;20.70;;;17.70;;
51529;SDS011;37613;51.788;21.582;2022-07-23T01:31:06;20.70;;;18.20;;
51529;SDS011;37613;51.788;21.582;2022-07-23T01:35:08;20.90;;;18.50;;
51529;SDS011;37613;51.788;21.582;2022-07-23T01:39:10;20.50;;;17.40;;
51529;SDS011;37613;51.788;21.582;2022-07-23T01:43:12;25.20;;;19.40;;
51529;SDS011;37613;51.788;21.582;2022-07-23T01:47:14;20.00;;;17.80;;
51529;SDS011;37613;51.788;21.582;2022-07-23T01:51:16;20.30;;;18.10;;
51529;SDS011;37613;51.788;21.582;2022-07-23T01:55:18;20.40;;;18.20;;
51529;SDS011;37613;51.788;21.582;2022-07-23T01:59:20;20.70;;;18.30;;
51529;SDS011;37613;51.788;21.582;2022-07-23T02:03:22;18.90;;;17.10;;
51529;SDS011;37613;51.788;21.582;2022-07-23T02:28:39;20.90;;;18.80;;
51529;SDS011;37613;51.788;21.582;2022-07-23T02:32:40;20.30;;;18.20;;
51529;SDS011;37613;51.788;21.582;2022-07-23T02:36:42;21.30;;;19.20;;
51529;SDS011;37613;51.788;21.582;2022-07-23T02:40:44;21.60;;;18.80;;
51529;SDS011;37613;51.788;21.582;2022-07-23T02:44:46;20.70;;;18.70;;
51529;SDS011;37613;51.788;21.582;2022-07-23T02:48:48;20.40;;;17.10;;
51529;SDS011;37613;51.788;21.582;2022-07-23T02:52:50;22.90;;;17.30;;
51529;SDS011;37613;51.788;21.582;2022-07-23T02:56:52;20.90;;;17.40;;
51529;SDS011;37613;51.788;21.582;2022-07-23T03:00:54;21.30;;;19.10;;
51529;SDS011;37613;51.788;21.582;2022-07-23T03:04:56;26.60;;;19.20;;
51529;SDS011;37613;51.788;21.582;2022-07-23T03:08:58;20.10;;;17.30;;
51529;SDS011;37613;51.788;21.582;2022-07-23T03:13:00;22.50;;;17.70;;
51529;SDS011;37613;51.788;21.582;2022-07-23T03:17:02;22.40;;;19.60;;
51529;SDS011;37613;51.788;21.582;2022-07-23T03:21:04;21.20;;;18.20;;
51529;SDS011;37613;51.788;21.582;2022-07-23T03:30:22;20.30;;;18.20;;
51529;SDS011;37613;51.788;21.582;2022-07-23T03:34:24;21.10;;;18.90;;
51529;SDS011;37613;51.788;21.582;2022-07-23T03:38:26;19.70;;;17.70;;
51529;SDS011;37613;51.788;21.582;2022-07-23T03:42:28;24.20;;;17.70;;
51529;SDS011;37613;51.788;21.582;2022-07-23T03:46:29;21.80;;;19.00;;
51529;SDS011;37613;51.788;21.582;2022-07-23T03:50:31;21.50;;;17.60;;
51529;SDS011;37613;51.788;21.582;2022-07-23T03:54:33;20.80;;;17.80;;
51529;SDS011;37613;51.788;21.582;2022-07-23T03:58:35;21.20;;;17.40;;
51529;SDS011;37613;51.788;21.582;2022-07-23T04:02:37;36.50;;;27.30;;
51529;SDS011;37613;51.788;21.582;2022-07-23T04:06:39;20.80;;;17.50;;
51529;SDS011;37613;51.788;21.582;2022-07-23T04:10:41;23.70;;;18.60;;
51529;SDS011;37613;51.788;21.582;2022-07-23T04:14:43;18.20;;;16.40;;
51529;SDS011;37613;51.788;21.582;2022-07-23T04:22:47;16.60;;;14.60;;
51529;SDS011;37613;51.788;21.582;2022-07-23T04:26:49;19.60;;;15.00;;
51529;SDS011;37613;51.788;21.582;2022-07-23T04:30:51;17.70;;;15.40;;
51529;SDS011;37613;51.788;21.582;2022-07-23T04:34:53;16.70;;;15.00;;
51529;SDS011;37613;51.788;21.582;2022-07-23T04:38:55;17.70;;;15.60;;
51529;SDS011;37613;51.788;21.582;2022-07-23T04:46:58;21.90;;;19.60;;
51529;SDS011;37613;51.788;21.582;2022-07-23T04:51:00;23.30;;;19.70;;
51529;SDS011;37613;51.788;21.582;2022-07-23T04:55:02;22.90;;;20.30;;
51529;SDS011;37613;51.788;21.582;2022-07-23T04:59:05;19.90;;;17.00;;
51529;SDS011;37613;51.788;21.582;2022-07-23T05:03:06;21.80;;;16.50;;
51529;SDS011;37613;51.788;21.582;2022-07-23T05:07:08;35.80;;;24.00;;
51529;SDS011;37613;51.788;21.582;2022-07-23T05:11:10;21.90;;;16.10;;
51529;SDS011;37613;51.788;21.582;2022-07-23T05:15:12;20.50;;;16.60;;
51529;SDS011;37613;51.788;21.582;2022-07-23T05:19:14;18.20;;;15.40;;
51529;SDS011;37613;51.788;21.582;2022-07-23T05:23:16;17.20;;;14.90;;
51529;SDS011;37613;51.788;21.582;2022-07-23T05:27:17;17.40;;;15.00;;
51529;SDS011;37613;51.788;21.582;2022-07-23T05:31:19;16.10;;;14.30;;
51529;SDS011;37613;51.788;21.582;2022-07-23T05:35:21;19.10;;;14.10;;
51529;SDS011;37613;51.788;21.582;2022-07-23T05:39:23;15.10;;;13.50;;
51529;SDS011;37613;51.788;21.582;2022-07-23T05:43:25;18.90;;;13.70;;
51529;SDS011;37613;51.788;21.582;2022-07-23T05:47:27;19.60;;;14.60;;
51529;SDS011;37613;51.788;21.582;2022-07-23T05:51:29;15.50;;;13.20;;
51529;SDS011;37613;51.788;21.582;2022-07-23T05:55:30;13.40;;;11.90;;
51529;SDS011;37613;51.788;21.582;2022-07-23T05:59:33;17.00;;;13.80;;
51529;SDS011;37613;51.788;21.582;2022-07-23T06:03:34;14.90;;;12.70;;
51529;SDS011;37613;51.788;21.582;2022-07-23T06:07:36;11.90;;;10.80;;
51529;SDS011;37613;51.788;21.582;2022-07-23T06:11:39;12.00;;;10.60;;
51529;SDS011;37613;51.788;21.582;2022-07-23T06:15:41;17.40;;;10.60;;
51529;SDS011;37613;51.788;21.582;2022-07-23T06:19:43;15.10;;;10.70;;
51529;SDS011;37613;51.788;21.582;2022-07-23T06:23:45;12.10;;;10.80;;
51529;SDS011;37613;51.788;21.582;2022-07-23T06:27:47;13.80;;;10.70;;
51529;SDS011;37613;51.788;21.582;2022-07-23T06:31:51;13.10;;;11.80;;
51529;SDS011;37613;51.788;21.582;2022-07-23T06:35:53;12.20;;;11.10;;
51529;SDS011;37613;51.788;21.582;2022-07-23T06:39:54;13.80;;;12.00;;
51529;SDS011;37613;51.788;21.582;2022-07-23T06:43:57;15.60;;;12.80;;
51529;SDS011;37613;51.788;21.582;2022-07-23T06:47:59;18.90;;;14.20;;
51529;SDS011;37613;51.788;21.582;2022-07-23T06:52:01;17.90;;;11.60;;
51529;SDS011;37613;51.788;21.582;2022-07-23T06:56:03;12.00;;;9.90;;
51529;SDS011;37613;51.788;21.582;2022-07-23T07:00:05;12.00;;;9.50;;
51529;SDS011;37613;51.788;21.582;2022-07-23T07:04:07;14.40;;;9.80;;
51529;SDS011;37613;51.788;21.582;2022-07-23T07:08:09;10.80;;;8.90;;
51529;SDS011;37613;51.788;21.582;2022-07-23T07:12:11;10.90;;;9.20;;
51529;SDS011;37613;51.788;21.582;2022-07-23T07:16:13;8.80;;;7.90;;
51529;SDS011;37613;51.788;21.582;2022-07-23T07:20:15;8.90;;;7.30;;
51529;SDS011;37613;51.788;21.582;2022-07-23T07:24:17;7.80;;;7.00;;
51529;SDS011;37613;51.788;21.582;2022-07-23T07:28:18;11.20;;;7.70;;
51529;SDS011;37613;51.788;21.582;2022-07-23T07:32:20;10.40;;;7.30;;
51529;SDS011;37613;51.788;21.582;2022-07-23T07:36:22;9.30;;;6.60;;
51529;SDS011;37613;51.788;21.582;2022-07-23T07:40:25;8.30;;;6.70;;
51529;SDS011;37613;51.788;21.582;2022-07-23T07:44:27;8.50;;;5.60;;
51529;SDS011;37613;51.788;21.582;2022-07-23T07:48:29;9.70;;;6.10;;
51529;SDS011;37613;51.788;21.582;2022-07-23T07:52:31;7.10;;;6.00;;
51529;SDS011;37613;51.788;21.582;2022-07-23T07:56:33;11.80;;;9.20;;
51529;SDS011;37613;51.788;21.582;2022-07-23T08:00:35;9.80;;;6.20;;
51529;SDS011;37613;51.788;21.582;2022-07-23T08:04:37;5.60;;;5.10;;
51529;SDS011;37613;51.788;21.582;2022-07-23T08:08:39;6.10;;;4.80;;
51529;SDS011;37613;51.788;21.582;2022-07-23T08:12:42;9.30;;;4.90;;
51529;SDS011;37613;51.788;21.582;2022-07-23T08:16:46;5.70;;;5.10;;
51529;SDS011;37613;51.788;21.582;2022-07-23T08:20:48;8.30;;;5.00;;
51529;SDS011;37613;51.788;21.582;2022-07-23T08:24:50;6.90;;;5.30;;
51529;SDS011;37613;51.788;21.582;2022-07-23T08:28:51;6.90;;;5.00;;
51529;SDS011;37613;51.788;21.582;2022-07-23T08:37:05;7.40;;;5.00;;
51529;SDS011;37613;51.788;21.582;2022-07-23T08:41:07;7.90;;;4.10;;
51529;SDS011;37613;51.788;21.582;2022-07-23T08:45:09;8.00;;;4.40;;
51529;SDS011;37613;51.788;21.582;2022-07-23T08:49:14;4.70;;;4.20;;
51529;SDS011;37613;51.788;21.582;2022-07-23T08:53:17;21.40;;;12.90;;
51529;SDS011;37613;51.788;21.582;2022-07-23T08:57:20;6.00;;;5.20;;
51529;SDS011;37613;51.788;21.582;2022-07-23T09:01:22;4.20;;;3.80;;
51529;SDS011;37613;51.788;21.582;2022-07-23T09:05:24;4.80;;;4.00;;
51529;SDS011;37613;51.788;21.582;2022-07-23T09:09:26;5.10;;;4.20;;
51529;SDS011;37613;51.788;21.582;2022-07-23T09:17:38;6.00;;;4.10;;
51529;SDS011;37613;51.788;21.582;2022-07-23T09:21:42;7.60;;;4.10;;
51529;SDS011;37613;51.788;21.582;2022-07-23T09:25:44;7.90;;;5.90;;
51529;SDS011;37613;51.788;21.582;2022-07-23T09:29:54;4.70;;;4.00;;
51529;SDS011;37613;51.788;21.582;2022-07-23T09:34:07;4.60;;;3.50;;
51529;SDS011;37613;51.788;21.582;2022-07-23T09:38:11;9.60;;;3.60;;
51529;SDS011;37613;51.788;21.582;2022-07-23T09:42:15;5.10;;;3.60;;
51529;SDS011;37613;51.788;21.582;2022-07-23T09:46:23;6.20;;;4.40;;
51529;SDS011;37613;51.788;21.582;2022-07-23T09:50:26;5.50;;;3.70;;
51529;SDS011;37613;51.788;21.582;2022-07-23T09:54:35;5.40;;;4.20;;
51529;SDS011;37613;51.788;21.582;2022-07-23T09:58:39;4.40;;;4.00;;
51529;SDS011;37613;51.788;21.582;2022-07-23T10:02:51;6.40;;;3.30;;
51529;SDS011;37613;51.788;21.582;2022-07-23T10:17:30;6.00;;;4.00;;
51529;SDS011;37613;51.788;21.582;2022-07-23T10:25:59;4.30;;;3.70;;
51529;SDS011;37613;51.788;21.582;2022-07-23T10:30:22;4.30;;;3.90;;
51529;SDS011;37613;51.788;21.582;2022-07-23T10:38:37;7.50;;;4.30;;
51529;SDS011;37613;51.788;21.582;2022-07-23T10:42:41;4.20;;;3.60;;
51529;SDS011;37613;51.788;21.582;2022-07-23T10:46:57;4.20;;;3.80;;
51529;SDS011;37613;51.788;21.582;2022-07-23T10:51:16;3.90;;;3.50;;
51529;SDS011;37613;51.788;21.582;2022-07-23T11:03:32;6.20;;;4.00;;
51529;SDS011;37613;51.788;21.582;2022-07-23T11:16:23;6.40;;;3.60;;
51529;SDS011;37613;51.788;21.582;2022-07-23T11:20:26;6.60;;;4.10;;
51529;SDS011;37613;51.788;21.582;2022-07-23T11:24:28;4.40;;;4.00;;
51529;SDS011;37613;51.788;21.582;2022-07-23T11:28:30;4.70;;;4.30;;
51529;SDS011;37613;51.788;21.582;2022-07-23T11:32:33;7.00;;;4.00;;
51529;SDS011;37613;51.788;21.582;2022-07-23T11:36:49;5.90;;;4.50;;
51529;SDS011;37613;51.788;21.582;2022-07-23T11:40:53;6.20;;;4.80;;
51529;SDS011;37613;51.788;21.582;2022-07-23T11:44:59;6.40;;;4.70;;
51529;SDS011;37613;51.788;21.582;2022-07-23T11:49:02;6.10;;;4.30;;
51529;SDS011;37613;51.788;21.582;2022-07-23T11:53:04;6.80;;;4.10;;
51529;SDS011;37613;51.788;21.582;2022-07-23T11:57:06;8.10;;;4.60;;
51529;SDS011;37613;51.788;21.582;2022-07-23T12:01:08;5.10;;;4.30;;
51529;SDS011;37613;51.788;21.582;2022-07-23T12:05:13;3.90;;;3.60;;
51529;SDS011;37613;51.788;21.582;2022-07-23T12:09:17;5.00;;;3.90;;
51529;SDS011;37613;51.788;21.582;2022-07-23T12:13:20;5.90;;;4.60;;
51529;SDS011;37613;51.788;21.582;2022-07-23T12:17:28;5.00;;;3.90;;
51529;SDS011;37613;51.788;21.582;2022-07-23T12:21:31;5.50;;;4.20;;
51529;SDS011;37613;51.788;21.582;2022-07-23T12:25:34;4.70;;;3.90;;
51529;SDS011;37613;51.788;21.582;2022-07-23T12:29:38;4.30;;;3.90;;
51529;SDS011;37613;51.788;21.582;2022-07-23T12:33:40;4.30;;;3.70;;
51529;SDS011;37613;51.788;21.582;2022-07-23T12:37:43;5.90;;;3.70;;
51529;SDS011;37613;51.788;21.582;2022-07-23T12:41:51;6.30;;;4.10;;
51529;SDS011;37613;51.788;21.582;2022-07-23T12:46:02;4.40;;;3.60;;
51529;SDS011;37613;51.788;21.582;2022-07-23T12:50:06;4.10;;;3.60;;
51529;SDS011;37613;51.788;21.582;2022-07-23T12:54:08;5.70;;;3.60;;
51529;SDS011;37613;51.788;21.582;2022-07-23T12:58:19;6.60;;;4.60;;
51529;SDS011;37613;51.788;21.582;2022-07-23T13:02:21;6.60;;;4.10;;
51529;SDS011;37613;51.788;21.582;2022-07-23T13:06:23;4.40;;;3.80;;
51529;SDS011;37613;51.788;21.582;2022-07-23T13:10:25;4.50;;;4.10;;
51529;SDS011;37613;51.788;21.582;2022-07-23T13:14:27;5.00;;;4.40;;
51529;SDS011;37613;51.788;21.582;2022-07-23T13:18:30;4.60;;;4.10;;
51529;SDS011;37613;51.788;21.582;2022-07-23T13:22:32;6.40;;;4.70;;
51529;SDS011;37613;51.788;21.582;2022-07-23T13:26:34;7.90;;;4.10;;
51529;SDS011;37613;51.788;21.582;2022-07-23T13:30:36;4.10;;;3.60;;
51529;SDS011;37613;51.788;21.582;2022-07-23T13:34:38;4.30;;;3.90;;
51529;SDS011;37613;51.788;21.582;2022-07-23T13:38:40;6.10;;;4.70;;
51529;SDS011;37613;51.788;21.582;2022-07-23T13:42:42;5.20;;;4.50;;
51529;SDS011;37613;51.788;21.582;2022-07-23T13:46:44;5.00;;;4.50;;
51529;SDS011;37613;51.788;21.582;2022-07-23T13:50:46;4.80;;;4.10;;
51529;SDS011;37613;51.788;21.582;2022-07-23T13:54:48;4.60;;;4.20;;
51529;SDS011;37613;51.788;21.582;2022-07-23T13:58:51;4.20;;;3.50;;
51529;SDS011;37613;51.788;21.582;2022-07-23T14:02:53;4.20;;;3.80;;
51529;SDS011;37613;51.788;21.582;2022-07-23T14:06:55;5.50;;;5.00;;
51529;SDS011;37613;51.788;21.582;2022-07-23T14:10:57;5.00;;;4.50;;
51529;SDS011;37613;51.788;21.582;2022-07-23T14:14:59;5.10;;;4.00;;
51529;SDS011;37613;51.788;21.582;2022-07-23T14:19:01;9.90;;;4.50;;
51529;SDS011;37613;51.788;21.582;2022-07-23T14:23:04;6.70;;;4.20;;
51529;SDS011;37613;51.788;21.582;2022-07-23T14:27:05;7.80;;;4.60;;
51529;SDS011;37613;51.788;21.582;2022-07-23T14:31:07;7.40;;;4.80;;
51529;SDS011;37613;51.788;21.582;2022-07-23T14:35:10;6.40;;;4.50;;
51529;SDS011;37613;51.788;21.582;2022-07-23T14:39:11;7.30;;;4.10;;
51529;SDS011;37613;51.788;21.582;2022-07-23T14:43:13;5.20;;;4.40;;
51529;SDS011;37613;51.788;21.582;2022-07-23T14:47:15;5.40;;;4.60;;
51529;SDS011;37613;51.788;21.582;2022-07-23T14:51:17;5.10;;;4.20;;
51529;SDS011;37613;51.788;21.582;2022-07-23T14:55:20;7.00;;;4.50;;
51529;SDS011;37613;51.788;21.582;2022-07-23T14:59:21;5.40;;;4.60;;
51529;SDS011;37613;51.788;21.582;2022-07-23T15:03:24;4.60;;;4.10;;
51529;SDS011;37613;51.788;21.582;2022-07-23T15:07:27;7.80;;;4.40;;
51529;SDS011;37613;51.788;21.582;2022-07-23T15:11:30;4.30;;;3.80;;
51529;SDS011;37613;51.788;21.582;2022-07-23T15:15:35;7.60;;;4.70;;
51529;SDS011;37613;51.788;21.582;2022-07-23T15:19:37;4.90;;;4.40;;
51529;SDS011;37613;51.788;21.582;2022-07-23T15:23:39;5.00;;;4.50;;
51529;SDS011;37613;51.788;21.582;2022-07-23T15:27:41;5.80;;;5.00;;
51529;SDS011;37613;51.788;21.582;2022-07-23T15:31:43;5.20;;;4.50;;
51529;SDS011;37613;51.788;21.582;2022-07-23T15:35:44;6.50;;;4.70;;
51529;SDS011;37613;51.788;21.582;2022-07-23T15:39:46;6.70;;;4.80;;
51529;SDS011;37613;51.788;21.582;2022-07-23T15:43:48;5.30;;;4.80;;
51529;SDS011;37613;51.788;21.582;2022-07-23T15:47:50;22.80;;;4.60;;
51529;SDS011;37613;51.788;21.582;2022-07-23T15:51:52;23.90;;;5.20;;
51529;SDS011;37613;51.788;21.582;2022-07-23T15:55:54;15.40;;;4.00;;
51529;SDS011;37613;51.788;21.582;2022-07-23T15:59:55;10.20;;;3.30;;
51529;SDS011;37613;51.788;21.582;2022-07-23T16:03:57;12.60;;;3.10;;
51529;SDS011;37613;51.788;21.582;2022-07-23T16:08:03;4.40;;;2.70;;
51529;SDS011;37613;51.788;21.582;2022-07-23T16:12:06;4.60;;;2.80;;
51529;SDS011;37613;51.788;21.582;2022-07-23T16:20:10;9.80;;;3.60;;
51529;SDS011;37613;51.788;21.582;2022-07-23T16:24:13;5.90;;;4.10;;
51529;SDS011;37613;51.788;21.582;2022-07-23T16:28:15;8.40;;;4.00;;
51529;SDS011;37613;51.788;21.582;2022-07-23T16:36:19;23.40;;;5.70;;
51529;SDS011;37613;51.788;21.582;2022-07-23T16:40:21;5.30;;;4.80;;
51529;SDS011;37613;51.788;21.582;2022-07-23T16:44:23;7.20;;;5.10;;
51529;SDS011;37613;51.788;21.582;2022-07-23T16:48:25;8.20;;;5.40;;
51529;SDS011;37613;51.788;21.582;2022-07-23T16:52:27;9.30;;;5.20;;
51529;SDS011;37613;51.788;21.582;2022-07-23T16:56:29;5.30;;;4.70;;
51529;SDS011;37613;51.788;21.582;2022-07-23T17:04:33;5.50;;;4.00;;
51529;SDS011;37613;51.788;21.582;2022-07-23T17:08:35;10.00;;;4.20;;
51529;SDS011;37613;51.788;21.582;2022-07-23T17:16:39;4.70;;;4.00;;
51529;SDS011;37613;51.788;21.582;2022-07-23T17:20:41;5.20;;;4.40;;
51529;SDS011;37613;51.788;21.582;2022-07-23T17:24:43;4.80;;;4.30;;
51529;SDS011;37613;51.788;21.582;2022-07-23T17:28:45;6.10;;;4.90;;
51529;SDS011;37613;51.788;21.582;2022-07-23T17:32:47;6.00;;;5.40;;
51529;SDS011;37613;51.788;21.582;2022-07-23T17:36:49;8.70;;;6.30;;
51529;SDS011;37613;51.788;21.582;2022-07-23T17:40:52;9.20;;;6.60;;
51529;SDS011;37613;51.788;21.582;2022-07-23T17:44:54;8.30;;;7.50;;
51529;SDS011;37613;51.788;21.582;2022-07-23T17:48:56;9.10;;;7.10;;
51529;SDS011;37613;51.788;21.582;2022-07-23T17:52:58;7.60;;;6.70;;
51529;SDS011;37613;51.788;21.582;2022-07-23T17:57:00;10.60;;;6.70;;
51529;SDS011;37613;51.788;21.582;2022-07-23T18:01:03;9.90;;;6.70;;
51529;SDS011;37613;51.788;21.582;2022-07-23T18:05:06;8.50;;;7.00;;
51529;SDS011;37613;51.788;21.582;2022-07-23T18:09:09;7.30;;;6.60;;
51529;SDS011;37613;51.788;21.582;2022-07-23T18:13:12;7.20;;;6.50;;
51529;SDS011;37613;51.788;21.582;2022-07-23T18:17:15;8.90;;;7.50;;
51529;SDS011;37613;51.788;21.582;2022-07-23T18:21:17;12.90;;;9.10;;
51529;SDS011;37613;51.788;21.582;2022-07-23T18:25:19;8.50;;;7.40;;
51529;SDS011;37613;51.788;21.582;2022-07-23T18:29:22;10.10;;;7.00;;
51529;SDS011;37613;51.788;21.582;2022-07-23T18:33:24;7.60;;;5.80;;
51529;SDS011;37613;51.788;21.582;2022-07-23T18:37:26;8.60;;;6.80;;
51529;SDS011;37613;51.788;21.582;2022-07-23T18:41:28;10.70;;;6.70;;
51529;SDS011;37613;51.788;21.582;2022-07-23T18:45:31;6.10;;;5.60;;
51529;SDS011;37613;51.788;21.582;2022-07-23T18:49:33;8.50;;;6.40;;
51529;SDS011;37613;51.788;21.582;2022-07-23T18:53:35;8.70;;;6.80;;
51529;SDS011;37613;51.788;21.582;2022-07-23T18:57:37;8.10;;;6.50;;
51529;SDS011;37613;51.788;21.582;2022-07-23T19:01:39;7.20;;;6.20;;
51529;SDS011;37613;51.788;21.582;2022-07-23T19:05:41;7.50;;;6.80;;
51529;SDS011;37613;51.788;21.582;2022-07-23T19:09:43;8.50;;;5.90;;
51529;SDS011;37613;51.788;21.582;2022-07-23T19:13:45;7.20;;;6.30;;
51529;SDS011;37613;51.788;21.582;2022-07-23T19:17:47;11.40;;;6.00;;
51529;SDS011;37613;51.788;21.582;2022-07-23T19:21:49;7.20;;;6.50;;
51529;SDS011;37613;51.788;21.582;2022-07-23T19:25:51;8.10;;;7.20;;
51529;SDS011;37613;51.788;21.582;2022-07-23T19:29:53;12.00;;;10.60;;
51529;SDS011;37613;51.788;21.582;2022-07-23T19:33:55;14.40;;;12.50;;
51529;SDS011;37613;51.788;21.582;2022-07-23T19:37:57;10.30;;;6.90;;
51529;SDS011;37613;51.788;21.582;2022-07-23T19:42:00;17.20;;;11.20;;
51529;SDS011;37613;51.788;21.582;2022-07-23T19:46:02;14.20;;;8.90;;
51529;SDS011;37613;51.788;21.582;2022-07-23T19:50:04;9.00;;;6.90;;
51529;SDS011;37613;51.788;21.582;2022-07-23T19:54:07;10.10;;;6.90;;
51529;SDS011;37613;51.788;21.582;2022-07-23T19:58:09;8.70;;;6.70;;
51529;SDS011;37613;51.788;21.582;2022-07-23T20:02:10;8.10;;;7.30;;
51529;SDS011;37613;51.788;21.582;2022-07-23T20:10:15;7.10;;;6.40;;
51529;SDS011;37613;51.788;21.582;2022-07-23T20:18:19;9.10;;;7.80;;
51529;SDS011;37613;51.788;21.582;2022-07-23T20:22:21;10.40;;;7.50;;
51529;SDS011;37613;51.788;21.582;2022-07-23T20:26:23;13.30;;;8.30;;
51529;SDS011;37613;51.788;21.582;2022-07-23T20:30:25;17.60;;;12.90;;
51529;SDS011;37613;51.788;21.582;2022-07-23T20:34:28;15.10;;;11.20;;
51529;SDS011;37613;51.788;21.582;2022-07-23T20:38:29;14.90;;;10.20;;
51529;SDS011;37613;51.788;21.582;2022-07-23T20:42:33;13.80;;;10.40;;
51529;SDS011;37613;51.788;21.582;2022-07-23T20:46:36;13.70;;;10.40;;
51529;SDS011;37613;51.788;21.582;2022-07-23T20:50:39;21.70;;;12.20;;
51529;SDS011;37613;51.788;21.582;2022-07-23T20:54:41;17.00;;;11.80;;
51529;SDS011;37613;51.788;21.582;2022-07-23T20:58:44;24.40;;;14.20;;
51529;SDS011;37613;51.788;21.582;2022-07-23T21:02:46;14.00;;;9.70;;
51529;SDS011;37613;51.788;21.582;2022-07-23T21:06:47;29.10;;;14.50;;
51529;SDS011;37613;51.788;21.582;2022-07-23T21:10:49;11.80;;;8.40;;
51529;SDS011;37613;51.788;21.582;2022-07-23T21:14:51;9.70;;;7.60;;
51529;SDS011;37613;51.788;21.582;2022-07-23T21:22:55;10.20;;;7.70;;
51529;SDS011;37613;51.788;21.582;2022-07-23T21:26:57;8.40;;;7.30;;
51529;SDS011;37613;51.788;21.582;2022-07-23T21:30:59;10.70;;;8.40;;
51529;SDS011;37613;51.788;21.582;2022-07-23T21:35:01;9.30;;;7.90;;
51529;SDS011;37613;51.788;21.582;2022-07-23T21:39:04;8.30;;;7.50;;
51529;SDS011;37613;51.788;21.582;2022-07-23T21:43:07;8.20;;;6.60;;
51529;SDS011;37613;51.788;21.582;2022-07-23T21:47:08;8.40;;;7.30;;
51529;SDS011;37613;51.788;21.582;2022-07-23T21:51:10;9.60;;;7.20;;
51529;SDS011;37613;51.788;21.582;2022-07-23T21:55:12;7.20;;;6.50;;
51529;SDS011;37613;51.788;21.582;2022-07-23T21:59:14;7.70;;;6.90;;
51529;SDS011;37613;51.788;21.582;2022-07-23T22:03:17;6.80;;;6.10;;
51529;SDS011;37613;51.788;21.582;2022-07-23T22:07:18;8.10;;;7.20;;
51529;SDS011;37613;51.788;21.582;2022-07-23T22:11:21;8.80;;;7.10;;
51529;SDS011;37613;51.788;21.582;2022-07-23T22:15:22;9.30;;;7.10;;
51529;SDS011;37613;51.788;21.582;2022-07-23T22:19:27;9.80;;;6.90;;
51529;SDS011;37613;51.788;21.582;2022-07-23T22:23:29;7.40;;;6.70;;
51529;SDS011;37613;51.788;21.582;2022-07-23T22:27:31;11.20;;;6.50;;
51529;SDS011;37613;51.788;21.582;2022-07-23T22:31:33;7.20;;;6.60;;
51529;SDS011;37613;51.788;21.582;2022-07-23T22:35:35;7.10;;;6.40;;
51529;SDS011;37613;51.788;21.582;2022-07-23T22:39:37;7.90;;;6.60;;
51529;SDS011;37613;51.788;21.582;2022-07-23T22:43:39;7.30;;;6.60;;
51529;SDS011;37613;51.788;21.582;2022-07-23T22:47:41;6.90;;;6.20;;
51529;SDS011;37613;51.788;21.582;2022-07-23T22:51:43;8.30;;;6.70;;
51529;SDS011;37613;51.788;21.582;2022-07-23T22:55:45;7.90;;;6.30;;
51529;SDS011;37613;51.788;21.582;2022-07-23T22:59:47;7.30;;;6.60;;
51529;SDS011;37613;51.788;21.582;2022-07-23T23:03:49;9.60;;;6.90;;
51529;SDS011;37613;51.788;21.582;2022-07-23T23:07:50;6.60;;;6.00;;
51529;SDS011;37613;51.788;21.582;2022-07-23T23:11:52;8.80;;;7.20;;
51529;SDS011;37613;51.788;21.582;2022-07-23T23:15:54;7.30;;;6.60;;
51529;SDS011;37613;51.788;21.582;2022-07-23T23:19:56;7.30;;;6.70;;
51529;SDS011;37613;51.788;21.582;2022-07-23T23:23:58;7.50;;;6.70;;
51529;SDS011;37613;51.788;21.582;2022-07-23T23:28:00;7.10;;;6.40;;
51529;SDS011;37613;51.788;21.582;2022-07-23T23:32:02;9.30;;;7.10;;
51529;SDS011;37613;51.788;21.582;2022-07-23T23:36:04;7.20;;;6.50;;
51529;SDS011;37613;51.788;21.582;2022-07-23T23:40:07;7.90;;;7.20;;
51529;SDS011;37613;51.788;21.582;2022-07-23T23:44:09;11.10;;;8.40;;
51529;SDS011;37613;51.788;21.582;2022-07-23T23:48:11;9.50;;;8.00;;
51529;SDS011;37613;51.788;21.582;2022-07-23T23:52:13;9.50;;;8.30;;
51529;SDS011;37613;51.788;21.582;2022-07-23T23:56:15;12.10;;;8.60;;
